Time;durP1;ratioP1;P1;durP2;ratioP2;P2;SDS_P1;SDS_P2;PMS_P1;PMS_P2;Temp;Humidity;BMP_temperature;BMP_pressure;BME280_temperature;BME280_humidity;BME280_pressure;Samples;Min_cycle;Max_cycle;Signal;HPM_P1;HPM_P2
2021/12/05 00:24:19;;;;;;;2.25;1.20;;;2.10;99.90;;;;;;5060900;28;20037;-83
2021/12/05 00:27:05;;;;;;;2.33;1.25;;;2.10;99.90;;;;;;5064501;28;20037;-84
2021/12/05 00:29:47;;;;;;;9.20;2.95;;;2.10;99.90;;;;;;5041323;28;20523;-85
2021/12/05 00:48:36;;;;;;;2.45;1.60;;;2.00;99.90;;;;;;5045340;28;20408;-87
2021/12/05 01:01:12;;;;;;;2.88;1.70;;;1.70;99.90;;;;;;5041458;28;20091;-85
2021/12/05 01:09:16;;;;;;;5.18;2.13;;;1.60;99.90;;;;;;5060434;28;20052;-82
2021/12/05 01:17:15;;;;;;;3.15;1.95;;;1.40;99.90;;;;;;5059900;28;20024;-83
2021/12/05 01:19:41;;;;;;;4.95;2.40;;;1.40;99.90;;;;;;5052308;28;20037;-83
2021/12/05 01:22:14;;;;;;;6.00;2.95;;;1.40;99.90;;;;;;5051271;28;20044;-84
2021/12/05 01:27:27;;;;;;;5.88;3.55;;;1.30;99.90;;;;;;5049325;28;20415;-85
2021/12/05 01:29:58;;;;;;;3.60;2.42;;;1.30;99.90;;;;;;5047127;28;20094;-84
2021/12/05 01:32:43;;;;;;;3.60;2.15;;;1.20;99.90;;;;;;5026468;28;20168;-86
2021/12/05 01:54:36;;;;;;;4.03;1.95;;;0.90;99.90;;;;;;4990532;28;20058;-84
2021/12/05 02:40:45;;;;;;;4.68;2.35;;;0.90;99.90;;;;;;5036098;28;20538;-85
2021/12/05 02:43:15;;;;;;;3.20;1.60;;;0.90;99.90;;;;;;5043836;28;20061;-86
2021/12/05 02:45:46;;;;;;;3.22;1.75;;;0.90;99.90;;;;;;5047538;28;20044;-83
2021/12/05 02:48:12;;;;;;;3.55;2.63;;;0.90;99.90;;;;;;5040161;28;20029;-84
2021/12/05 02:50:39;;;;;;;3.58;1.85;;;1.00;99.90;;;;;;5025688;28;20033;-85
2021/12/05 02:53:43;;;;;;;4.13;1.80;;;1.00;99.90;;;;;;5043319;28;20112;-85
2021/12/05 02:55:57;;;;;;;3.95;1.80;;;1.00;99.90;;;;;;5042334;28;20038;-85
2021/12/05 03:03:25;;;;;;;3.67;1.85;;;0.90;99.90;;;;;;5041758;28;20030;-86
2021/12/05 03:06:03;;;;;;;5.78;1.88;;;0.90;99.90;;;;;;5024103;28;20095;-87
2021/12/05 03:08:29;;;;;;;6.65;1.95;;;0.80;99.90;;;;;;5044264;28;20021;-84
2021/12/05 03:10:57;;;;;;;4.30;1.92;;;0.90;99.90;;;;;;5041953;28;20112;-83
2021/12/05 03:13:23;;;;;;;4.03;2.28;;;0.80;99.90;;;;;;5041873;28;20053;-85
2021/12/05 03:15:49;;;;;;;4.22;1.77;;;0.90;99.90;;;;;;5040619;28;20052;-86
2021/12/05 03:18:15;;;;;;;2.90;1.80;;;0.90;99.90;;;;;;5050882;28;20120;-87
2021/12/05 03:20:41;;;;;;;3.58;1.60;;;0.90;99.90;;;;;;5046905;28;20052;-86
2021/12/05 03:23:07;;;;;;;5.47;1.65;;;0.90;99.90;;;;;;5040825;28;20504;-84
2021/12/05 03:25:33;;;;;;;5.15;1.52;;;0.80;99.90;;;;;;5050333;28;20040;-85
2021/12/05 03:27:59;;;;;;;4.00;1.92;;;0.80;99.90;;;;;;5044998;28;20029;-83
2021/12/05 03:30:27;;;;;;;2.80;1.48;;;0.80;99.90;;;;;;5045326;28;20052;-85
2021/12/05 03:32:55;;;;;;;5.85;1.92;;;0.80;99.90;;;;;;5039082;28;20033;-84
2021/12/05 03:35:25;;;;;;;4.25;1.90;;;0.90;99.90;;;;;;5063318;28;20510;-84
2021/12/05 03:37:52;;;;;;;10.82;2.30;;;0.90;99.90;;;;;;5045254;28;20511;-85
2021/12/05 03:40:21;;;;;;;5.07;2.40;;;0.90;99.90;;;;;;5061659;28;20104;-84
2021/12/05 03:42:47;;;;;;;5.47;2.13;;;0.90;99.90;;;;;;5045363;28;20159;-85
2021/12/05 03:45:22;;;;;;;4.95;1.75;;;0.90;99.90;;;;;;5061080;28;20052;-82
2021/12/05 03:47:48;;;;;;;8.80;2.10;;;1.00;99.90;;;;;;5086165;28;20009;-84
2021/12/05 03:50:16;;;;;;;4.32;2.10;;;0.90;99.90;;;;;;5072423;28;20550;-87
2021/12/05 03:52:42;;;;;;;4.82;1.90;;;0.90;99.90;;;;;;5045146;28;20029;-86
2021/12/05 03:55:10;;;;;;;6.28;2.10;;;0.90;99.90;;;;;;5052768;28;20484;-85
2021/12/05 03:57:36;;;;;;;6.03;2.25;;;1.00;99.90;;;;;;5066384;28;20033;-84
2021/12/05 04:00:07;;;;;;;6.03;1.90;;;1.00;99.90;;;;;;5066464;28;20585;-85
2021/12/05 04:02:33;;;;;;;3.97;2.03;;;1.10;99.90;;;;;;5044078;28;20064;-84
2021/12/05 04:04:59;;;;;;;4.78;1.75;;;1.00;99.90;;;;;;5045247;28;20033;-85
2021/12/05 04:07:25;;;;;;;11.40;2.15;;;1.00;99.90;;;;;;5068108;28;20078;-85
2021/12/05 04:09:51;;;;;;;4.38;2.00;;;1.10;99.90;;;;;;5042681;28;20112;-85
2021/12/05 04:12:17;;;;;;;5.03;2.00;;;1.00;99.90;;;;;;5042792;28;20382;-83
2021/12/05 04:14:48;;;;;;;5.57;2.13;;;1.00;99.90;;;;;;5046108;28;20479;-87
2021/12/05 04:17:16;;;;;;;7.10;2.45;;;1.00;99.90;;;;;;5062274;28;20045;-86
2021/12/05 04:19:42;;;;;;;7.10;2.97;;;1.10;99.90;;;;;;5042909;28;20484;-84
2021/12/05 04:22:09;;;;;;;5.65;2.20;;;1.10;99.90;;;;;;5042547;28;20040;-85
2021/12/05 04:24:35;;;;;;;8.90;2.20;;;1.10;99.90;;;;;;5038677;28;20088;-84
2021/12/05 04:27:02;;;;;;;5.28;1.80;;;1.10;99.90;;;;;;5040686;28;20029;-85
2021/12/05 04:29:27;;;;;;;4.90;2.05;;;1.10;99.90;;;;;;5043874;28;20051;-85
2021/12/05 04:31:53;;;;;;;4.97;2.30;;;1.10;99.90;;;;;;5056987;28;20504;-85
2021/12/05 04:34:19;;;;;;;4.18;1.67;;;1.00;99.90;;;;;;5065205;28;20025;-85
2021/12/05 04:36:45;;;;;;;10.73;1.90;;;1.00;99.90;;;;;;5065458;28;20032;-85
2021/12/05 04:39:13;;;;;;;3.53;2.00;;;0.90;99.90;;;;;;5061384;28;20035;-85
2021/12/05 04:41:41;;;;;;;6.30;1.48;;;0.90;99.90;;;;;;5070487;28;20025;-85
2021/12/05 04:44:07;;;;;;;2.35;1.20;;;1.00;99.90;;;;;;5068233;28;20082;-84
2021/12/05 04:46:33;;;;;;;5.15;1.77;;;0.90;99.90;;;;;;5055388;28;20510;-85
2021/12/05 04:48:59;;;;;;;3.45;1.30;;;0.90;99.90;;;;;;5045926;28;20476;-86
2021/12/05 04:51:31;;;;;;;3.42;1.33;;;0.90;99.90;;;;;;5048170;28;20078;-85
2021/12/05 04:53:58;;;;;;;5.55;1.70;;;0.90;99.90;;;;;;5046567;28;20025;-84
2021/12/05 04:56:24;;;;;;;6.30;2.13;;;0.90;99.90;;;;;;5069835;28;20044;-84
2021/12/05 04:58:52;;;;;;;3.65;1.20;;;0.90;99.90;;;;;;5060531;28;20059;-85
2021/12/05 05:01:18;;;;;;;2.25;1.35;;;0.90;99.90;;;;;;5057237;28;20064;-87
2021/12/05 05:03:44;;;;;;;7.28;1.42;;;0.80;99.90;;;;;;5042418;28;20476;-85
2021/12/05 05:06:14;;;;;;;10.68;2.38;;;0.80;99.90;;;;;;5046567;28;20040;-86
2021/12/05 05:08:41;;;;;;;5.03;1.73;;;0.80;99.90;;;;;;5045315;28;20024;-83
2021/12/05 05:11:11;;;;;;;6.63;1.73;;;0.80;99.90;;;;;;5079101;28;20041;-83
2021/12/05 05:13:38;;;;;;;7.65;3.25;;;0.80;99.90;;;;;;5055037;28;20021;-84
2021/12/05 05:16:06;;;;;;;5.95;1.90;;;0.80;99.90;;;;;;5062887;28;20037;-85
2021/12/05 05:29:44;;;;;;;7.32;1.98;;;0.90;99.90;;;;;;5044503;28;20051;-85
2021/12/05 05:48:33;;;;;;;5.25;2.42;;;0.90;99.90;;;;;;5064741;28;20035;-85
2021/12/05 05:50:59;;;;;;;6.68;2.00;;;1.00;99.90;;;;;;5062807;28;20510;-84
2021/12/05 05:53:25;;;;;;;6.30;1.85;;;1.00;99.90;;;;;;5062030;28;20024;-85
2021/12/05 05:55:53;;;;;;;5.25;2.05;;;1.00;99.90;;;;;;5063051;28;20079;-86
2021/12/05 05:58:23;;;;;;;3.70;1.95;;;1.10;99.90;;;;;;5046864;28;20032;-86
2021/12/05 06:03:24;;;;;;;3.85;2.22;;;1.00;99.90;;;;;;5044008;28;20083;-84
2021/12/05 06:05:52;;;;;;;9.70;1.52;;;0.90;99.90;;;;;;5039558;28;20038;-85
2021/12/05 06:08:22;;;;;;;6.28;2.30;;;1.00;99.90;;;;;;5041162;28;20021;-84
2021/12/05 06:10:47;;;;;;;11.07;2.95;;;0.90;99.90;;;;;;5043456;28;20108;-84
2021/12/05 06:13:15;;;;;;;4.18;1.40;;;1.00;99.90;;;;;;5035193;28;20116;-86
2021/12/05 06:15:41;;;;;;;3.58;1.40;;;1.00;99.90;;;;;;5051903;28;20036;-85
2021/12/05 06:18:07;;;;;;;4.65;1.63;;;1.00;99.90;;;;;;5045468;28;20033;-85
2021/12/05 06:20:32;;;;;;;4.03;1.52;;;0.90;99.90;;;;;;5043070;28;20401;-85
2021/12/05 06:22:59;;;;;;;4.20;1.83;;;0.90;99.90;;;;;;5041181;28;20443;-84
2021/12/05 06:25:27;;;;;;;3.83;1.63;;;0.90;99.90;;;;;;5046567;28;20107;-84
2021/12/05 06:27:56;;;;;;;4.28;1.92;;;0.80;99.90;;;;;;5040200;28;20030;-84
2021/12/05 06:30:39;;;;;;;4.63;1.60;;;0.80;99.90;;;;;;5041457;28;20021;-85
2021/12/05 06:38:53;;;;;;;2.45;1.40;;;0.80;99.90;;;;;;5052055;28;20028;-86
2021/12/05 06:46:21;;;;;;;4.38;2.08;;;0.90;99.90;;;;;;5031046;28;20047;-85
2021/12/05 06:48:47;;;;;;;5.15;2.47;;;0.80;99.90;;;;;;5008327;28;20396;-83
2021/12/05 06:51:20;;;;;;;4.90;1.90;;;0.80;99.90;;;;;;5051458;28;20510;-84
2021/12/05 06:53:46;;;;;;;4.80;2.47;;;0.80;99.90;;;;;;5046781;28;20029;-83
2021/12/05 06:56:14;;;;;;;4.68;1.92;;;0.90;99.90;;;;;;5033847;28;20036;-84
2021/12/05 06:58:40;;;;;;;4.28;1.67;;;0.90;99.90;;;;;;5049320;28;20052;-85
2021/12/05 07:01:09;;;;;;;5.03;1.60;;;0.90;99.90;;;;;;5050640;28;20056;-84
2021/12/05 07:03:39;;;;;;;8.65;3.28;;;0.90;99.90;;;;;;5058383;28;20029;-85
2021/12/05 07:06:28;;;;;;;5.00;2.70;;;0.90;99.90;;;;;;5047752;28;20037;-83
2021/12/05 07:08:54;;;;;;;4.90;2.50;;;0.90;99.90;;;;;;5038179;28;20026;-83
2021/12/05 07:11:29;;;;;;;3.53;2.10;;;0.80;99.90;;;;;;5063451;28;20040;-82
2021/12/05 07:19:54;;;;;;;9.45;2.60;;;0.80;99.90;;;;;;5043997;28;20037;-83
2021/12/05 07:24:42;;;;;;;4.60;2.42;;;0.80;99.90;;;;;;5047459;28;20028;-83
2021/12/05 07:40:18;;;;;;;6.97;3.65;;;0.90;99.90;;;;;;5039115;28;20064;-86
2021/12/05 07:40:46;;;;;;;8.20;2.20;;;0.90;99.90;;;;;;5051129;28;20040;-88
2021/12/05 07:43:15;;;;;;;8.45;3.35;;;0.90;99.90;;;;;;5046734;28;20037;-85
2021/12/05 07:45:48;;;;;;;4.97;2.63;;;0.90;99.90;;;;;;5043215;28;20073;-81
2021/12/05 07:48:17;;;;;;;4.57;2.60;;;1.00;99.90;;;;;;5047490;28;20032;-86
2021/12/05 07:51:15;;;;;;;3.72;2.08;;;1.10;99.90;;;;;;5051368;28;20020;-86
2021/12/05 07:54:00;;;;;;;6.70;2.55;;;1.00;99.90;;;;;;5047137;28;20543;-87
2021/12/05 08:00:12;;;;;;;9.93;2.83;;;1.00;99.90;;;;;;5036636;28;20452;-86
2021/12/05 08:15:58;;;;;;;7.90;2.85;;;0.90;99.90;;;;;;5062416;28;20039;-85
2021/12/05 08:18:24;;;;;;;4.57;2.50;;;1.00;99.90;;;;;;5067933;28;20085;-86
2021/12/05 08:20:50;;;;;;;7.82;3.53;;;1.10;99.90;;;;;;5062639;28;20426;-86
2021/12/05 08:23:17;;;;;;;5.55;2.65;;;1.10;99.90;;;;;;5066245;28;20028;-87
2021/12/05 08:25:48;;;;;;;15.77;3.53;;;1.10;99.90;;;;;;5060962;28;20036;-86
2021/12/05 08:30:41;;;;;;;11.30;4.10;;;1.10;99.90;;;;;;5061709;28;20056;-86
2021/12/05 08:43:43;;;;;;;5.25;2.70;;;1.10;99.90;;;;;;5065171;28;20021;-88
2021/12/05 09:24:45;;;;;;;7.75;2.20;;;1.60;99.90;;;;;;5048290;28;20047;-88
2021/12/05 10:38:02;;;;;;;3.55;1.73;;;3.00;99.90;;;;;;5060786;28;20025;-84
2021/12/05 10:40:39;;;;;;;4.22;2.15;;;3.10;99.90;;;;;;5048746;28;20020;-86
2021/12/05 10:43:20;;;;;;;5.90;2.15;;;3.00;99.90;;;;;;5062720;28;20044;-87
2021/12/05 10:45:51;;;;;;;3.50;1.25;;;3.00;99.90;;;;;;5026281;28;20577;-84
2021/12/05 10:48:26;;;;;;;5.82;2.03;;;2.90;99.90;;;;;;5062298;28;20074;-84
2021/12/05 10:51:14;;;;;;;5.43;1.85;;;2.90;99.90;;;;;;5063573;28;20036;-84
2021/12/05 10:53:47;;;;;;;3.72;1.17;;;2.70;99.90;;;;;;5066881;28;20124;-86
2021/12/05 10:56:23;;;;;;;4.85;1.67;;;2.60;99.90;;;;;;5063471;28;20025;-86
2021/12/05 10:58:49;;;;;;;3.40;1.48;;;2.70;99.90;;;;;;5066711;28;20043;-85
2021/12/05 11:01:23;;;;;;;3.72;1.67;;;2.70;99.90;;;;;;5049333;28;20052;-85
2021/12/05 11:04:04;;;;;;;2.28;1.05;;;2.70;99.90;;;;;;5064250;28;20033;-84
2021/12/05 11:06:32;;;;;;;5.00;1.70;;;2.80;99.90;;;;;;5066259;28;20037;-85
2021/12/05 11:09:08;;;;;;;5.72;1.65;;;2.90;99.90;;;;;;5068903;28;20029;-85
2021/12/05 11:11:35;;;;;;;8.98;1.88;;;3.00;99.90;;;;;;5051046;28;20048;-84
2021/12/05 11:14:03;;;;;;;4.85;1.52;;;2.80;99.90;;;;;;5049708;28;20046;-85
2021/12/05 11:16:40;;;;;;;5.05;2.00;;;2.60;99.90;;;;;;5050070;28;20036;-84
2021/12/05 11:19:12;;;;;;;2.60;1.30;;;2.70;99.90;;;;;;5065131;28;20029;-86
2021/12/05 11:21:46;;;;;;;3.17;1.33;;;2.80;99.90;;;;;;5067692;28;20056;-86
2021/12/05 11:24:47;;;;;;;3.10;1.05;;;2.90;99.90;;;;;;5067859;28;20574;-85
2021/12/05 11:27:16;;;;;;;4.05;1.50;;;2.90;99.90;;;;;;5061305;28;20052;-85
2021/12/05 11:29:48;;;;;;;2.43;1.20;;;2.80;99.90;;;;;;5059880;28;20025;-84
2021/12/05 11:32:29;;;;;;;2.15;1.27;;;2.80;99.90;;;;;;5062683;28;20140;-84
2021/12/05 11:34:55;;;;;;;3.90;1.23;;;2.80;99.90;;;;;;5046131;28;20050;-84
2021/12/05 11:37:20;;;;;;;3.47;1.52;;;3.00;99.90;;;;;;5063587;28;20028;-86
2021/12/05 11:39:47;;;;;;;2.17;1.05;;;3.20;99.90;;;;;;5064714;28;20040;-85
2021/12/05 11:42:20;;;;;;;1.83;1.15;;;3.30;99.90;;;;;;5065981;28;20031;-85
2021/12/05 11:44:52;;;;;;;2.28;1.00;;;3.40;99.90;;;;;;5063143;28;20110;-83
2021/12/05 11:47:21;;;;;;;2.88;1.48;;;3.50;99.90;;;;;;5062758;28;20078;-84
2021/12/05 11:49:47;;;;;;;2.90;1.17;;;3.60;99.90;;;;;;5045258;28;20078;-84
2021/12/05 11:52:21;;;;;;;3.60;1.20;;;3.40;99.90;;;;;;5039386;28;20029;-84
2021/12/05 11:54:46;;;;;;;3.75;1.25;;;3.50;99.90;;;;;;5063922;28;20024;-84
2021/12/05 11:57:24;;;;;;;11.85;1.67;;;3.50;99.90;;;;;;5068665;28;20013;-83
2021/12/05 11:59:54;;;;;;;4.97;1.30;;;3.40;99.90;;;;;;5073326;28;20052;-84
2021/12/05 12:02:29;;;;;;;2.22;1.20;;;3.40;99.90;;;;;;5065514;28;20500;-83
2021/12/05 12:05:02;;;;;;;3.80;1.30;;;3.40;99.90;;;;;;5050086;28;20039;-84
2021/12/05 12:07:37;;;;;;;3.45;1.45;;;3.30;99.90;;;;;;5067390;28;20061;-84
2021/12/05 12:10:12;;;;;;;1.75;1.20;;;3.30;99.90;;;;;;5044382;28;20389;-84
2021/12/05 12:12:43;;;;;;;2.17;1.30;;;3.20;99.90;;;;;;5061094;28;20021;-84
2021/12/05 12:15:10;;;;;;;2.70;1.10;;;3.20;99.90;;;;;;5047908;28;20099;-84
2021/12/05 12:17:35;;;;;;;2.45;1.25;;;3.20;99.90;;;;;;5059979;28;20056;-83
2021/12/05 12:20:04;;;;;;;2.65;0.95;;;3.10;99.90;;;;;;5073894;28;20039;-84
2021/12/05 12:22:29;;;;;;;3.75;1.20;;;2.90;99.90;;;;;;5087440;28;20009;-85
2021/12/05 12:25:01;;;;;;;5.13;1.83;;;3.10;99.90;;;;;;5067117;28;20028;-84
2021/12/05 12:27:27;;;;;;;7.43;1.92;;;3.20;99.90;;;;;;5064237;28;20032;-84
2021/12/05 12:29:57;;;;;;;4.40;1.20;;;3.20;99.90;;;;;;5049046;28;20044;-85
2021/12/05 12:32:35;;;;;;;4.80;1.25;;;3.20;99.90;;;;;;5044884;28;20025;-85
2021/12/05 12:35:08;;;;;;;2.90;1.17;;;3.00;99.90;;;;;;5063611;28;20025;-84
2021/12/05 12:37:55;;;;;;;3.25;1.10;;;2.90;99.90;;;;;;5065428;28;20028;-84
2021/12/05 12:40:33;;;;;;;3.35;1.10;;;2.90;99.90;;;;;;5064957;28;20073;-84
2021/12/05 12:42:59;;;;;;;1.30;1.00;;;2.80;99.90;;;;;;5064364;28;20029;-84
2021/12/05 12:45:25;;;;;;;1.75;0.90;;;2.90;99.90;;;;;;5069080;28;20049;-85
2021/12/05 12:47:58;;;;;;;4.22;1.20;;;3.00;99.90;;;;;;5065724;28;20032;-85
2021/12/05 12:50:50;;;;;;;1.75;1.02;;;3.30;99.90;;;;;;5060869;28;20029;-85
2021/12/05 12:53:23;;;;;;;6.43;1.52;;;3.30;99.90;;;;;;5062734;28;20491;-84
2021/12/05 12:55:54;;;;;;;4.55;1.48;;;3.40;99.90;;;;;;5066314;28;20472;-84
2021/12/05 12:58:49;;;;;;;3.08;1.25;;;3.30;99.90;;;;;;5061867;28;20560;-85
2021/12/05 13:01:32;;;;;;;3.25;1.15;;;3.30;99.90;;;;;;5064722;28;20545;-85
2021/12/05 13:07:22;;;;;;;2.50;1.35;;;3.70;99.90;;;;;;5065582;28;20027;-85
2021/12/05 13:12:44;;;;;;;3.88;1.25;;;3.60;99.90;;;;;;5071264;28;20590;-87
2021/12/05 13:15:16;;;;;;;3.72;1.50;;;3.50;99.90;;;;;;5057133;28;20033;-86
2021/12/05 13:17:42;;;;;;;5.45;1.33;;;3.20;99.90;;;;;;5051245;28;20029;-87
2021/12/05 13:20:10;;;;;;;3.28;1.63;;;3.30;99.00;;;;;;5070185;28;20024;-87
2021/12/05 13:23:06;;;;;;;3.40;1.30;;;3.50;99.90;;;;;;5066310;28;20036;-88
2021/12/05 13:25:52;;;;;;;4.75;1.90;;;3.60;99.90;;;;;;5048862;28;20099;-85
2021/12/05 13:28:44;;;;;;;4.00;1.45;;;3.60;99.60;;;;;;5055229;28;20029;-84
2021/12/05 13:31:27;;;;;;;3.60;1.83;;;3.60;99.90;;;;;;5068745;28;20093;-85
2021/12/05 13:34:18;;;;;;;1.85;1.40;;;3.60;99.90;;;;;;5060990;28;20052;-83
2021/12/05 13:36:47;;;;;;;3.78;1.92;;;3.70;99.90;;;;;;5069748;28;20021;-84
2021/12/05 13:39:31;;;;;;;3.15;1.58;;;3.70;99.90;;;;;;5060315;28;20033;-84
2021/12/05 13:42:07;;;;;;;7.68;2.47;;;3.80;99.90;;;;;;5067104;28;20016;-84
2021/12/05 13:45:06;;;;;;;3.90;2.28;;;3.60;99.90;;;;;;5045230;28;20037;-85
2021/12/05 13:47:52;;;;;;;3.33;1.52;;;3.60;99.90;;;;;;5022091;28;20033;-85
2021/12/05 13:50:29;;;;;;;6.60;2.03;;;3.70;99.90;;;;;;5032606;28;20513;-85
2021/12/05 13:53:07;;;;;;;5.13;1.95;;;3.80;97.70;;;;;;5020279;28;20030;-84
2021/12/05 13:55:53;;;;;;;3.67;2.03;;;3.80;99.90;;;;;;5026288;28;20071;-85
2021/12/05 13:58:40;;;;;;;7.57;2.00;;;3.80;99.90;;;;;;5025077;28;20018;-85
2021/12/05 14:01:18;;;;;;;10.55;1.98;;;3.90;99.90;;;;;;5020741;28;20041;-86
2021/12/05 14:04:01;;;;;;;9.30;3.08;;;3.90;98.10;;;;;;5020624;28;20058;-84
2021/12/05 14:06:49;;;;;;;9.38;1.98;;;3.90;98.80;;;;;;5024397;28;20029;-86
2021/12/05 14:09:29;;;;;;;8.25;2.85;;;3.90;98.40;;;;;;5020997;28;20021;-83
2021/12/05 14:12:19;;;;;;;6.05;2.78;;;3.80;98.40;;;;;;5023779;28;20118;-83
2021/12/05 14:15:15;;;;;;;6.73;3.00;;;3.90;98.10;;;;;;5020983;28;20025;-85
2021/12/05 14:17:43;;;;;;;5.25;2.50;;;4.00;98.90;;;;;;5021871;28;20156;-83
2021/12/05 14:20:19;;;;;;;4.65;1.80;;;4.00;98.10;;;;;;5026544;28;20037;-85
2021/12/05 14:22:48;;;;;;;7.07;2.63;;;4.00;98.90;;;;;;5026378;28;20025;-84
2021/12/05 14:25:20;;;;;;;3.05;1.55;;;3.90;97.80;;;;;;5041530;28;20028;-85
2021/12/05 14:27:58;;;;;;;9.45;2.60;;;3.80;97.80;;;;;;5016461;28;20030;-83
2021/12/05 14:30:27;;;;;;;6.28;1.95;;;3.80;99.10;;;;;;5025290;28;20108;-84
2021/12/05 14:32:58;;;;;;;7.35;2.13;;;3.80;99.50;;;;;;5029607;28;20029;-83
2021/12/05 14:35:36;;;;;;;6.72;2.85;;;3.70;99.20;;;;;;5020315;28;20025;-82
2021/12/05 14:38:03;;;;;;;4.68;2.42;;;3.80;99.90;;;;;;5019212;28;20041;-83
2021/12/05 14:40:31;;;;;;;9.98;1.80;;;3.80;99.90;;;;;;5025624;28;20060;-83
2021/12/05 14:43:03;;;;;;;4.03;2.25;;;3.80;99.90;;;;;;5021864;28;20038;-82
2021/12/05 14:45:31;;;;;;;8.32;4.40;;;3.80;99.90;;;;;;5045470;28;20085;-85
2021/12/05 14:48:03;;;;;;;5.53;2.22;;;3.80;99.90;;;;;;5061625;28;20024;-84
2021/12/05 14:50:31;;;;;;;12.68;2.92;;;3.70;99.90;;;;;;5060958;28;20116;-83
2021/12/05 14:53:00;;;;;;;5.55;3.22;;;3.70;99.90;;;;;;5064339;28;20025;-85
2021/12/05 14:55:30;;;;;;;6.03;2.28;;;3.70;99.90;;;;;;5061478;28;20032;-83
2021/12/05 14:57:58;;;;;;;6.25;1.45;;;3.80;99.90;;;;;;5044134;28;20027;-82
2021/12/05 15:00:38;;;;;;;6.53;2.30;;;3.70;99.90;;;;;;5061664;28;20033;-82
2021/12/05 15:03:14;;;;;;;5.53;2.58;;;3.70;99.90;;;;;;5050090;28;20024;-83
2021/12/05 15:05:43;;;;;;;7.68;2.70;;;3.70;99.90;;;;;;5062492;28;20037;-83
2021/12/05 15:08:13;;;;;;;9.65;3.70;;;3.70;99.90;;;;;;5063322;28;20090;-83
2021/12/05 15:10:41;;;;;;;26.08;5.63;;;3.60;99.90;;;;;;5065358;28;20073;-82
2021/12/05 15:13:09;;;;;;;5.10;2.47;;;3.60;99.90;;;;;;5063742;28;20028;-84
2021/12/05 15:15:35;;;;;;;9.55;2.58;;;3.50;99.90;;;;;;5062652;28;20021;-84
2021/12/05 15:18:02;;;;;;;6.65;2.67;;;3.50;99.90;;;;;;5062088;28;20036;-83
2021/12/05 15:20:31;;;;;;;6.47;2.35;;;3.40;99.90;;;;;;5047400;28;20033;-84
2021/12/05 15:23:11;;;;;;;15.65;5.60;;;3.30;99.90;;;;;;5061220;28;20495;-83
2021/12/05 15:25:41;;;;;;;11.82;4.68;;;3.30;99.90;;;;;;5045856;28;20043;-86
2021/12/05 15:28:09;;;;;;;21.17;11.10;;;3.30;99.90;;;;;;5063067;28;20024;-88
2021/12/05 15:30:38;;;;;;;12.98;6.00;;;3.30;99.90;;;;;;5060598;28;20433;-85
2021/12/05 15:33:07;;;;;;;11.15;7.05;;;3.10;99.90;;;;;;5066775;28;20112;-82
2021/12/05 15:35:34;;;;;;;9.82;5.68;;;3.10;99.90;;;;;;5070978;28;20035;-85
2021/12/05 15:38:06;;;;;;;34.38;16.02;;;3.10;99.90;;;;;;5060670;28;20086;-84
2021/12/05 15:40:35;;;;;;;13.88;6.47;;;3.10;99.90;;;;;;5054200;28;20025;-82
2021/12/05 15:43:22;;;;;;;202.23;105.30;;;2.90;99.90;;;;;;5063201;28;20028;-82
2021/12/05 15:45:53;;;;;;;45.08;21.48;;;2.80;99.90;;;;;;5062379;28;20561;-83
2021/12/05 15:48:23;;;;;;;12.52;7.57;;;2.70;99.90;;;;;;5059366;28;20036;-81
2021/12/05 15:50:51;;;;;;;15.23;8.18;;;2.50;99.90;;;;;;5068632;28;20083;-81
2021/12/05 15:53:19;;;;;;;22.05;7.88;;;2.30;99.90;;;;;;5045517;28;20048;-82
2021/12/05 15:55:52;;;;;;;17.35;7.70;;;2.20;99.90;;;;;;5049600;28;20095;-81
2021/12/05 15:58:30;;;;;;;18.10;10.27;;;2.20;99.90;;;;;;5082967;28;20025;-83
2021/12/05 16:01:13;;;;;;;19.33;9.05;;;2.20;99.90;;;;;;5067871;28;20028;-84
2021/12/05 16:03:50;;;;;;;12.45;7.32;;;2.20;99.90;;;;;;5065238;28;20056;-83
2021/12/05 16:06:18;;;;;;;13.30;6.82;;;2.10;99.90;;;;;;5041527;28;20550;-84
2021/12/05 16:08:46;;;;;;;13.32;5.88;;;2.00;99.90;;;;;;5045387;28;20037;-84
2021/12/05 16:11:15;;;;;;;24.67;6.35;;;1.80;99.90;;;;;;5048180;28;20052;-82
2021/12/05 16:13:42;;;;;;;9.55;5.28;;;1.70;99.90;;;;;;5067592;28;20025;-83
2021/12/05 16:16:17;;;;;;;8.93;4.63;;;1.60;99.90;;;;;;5061568;28;20091;-82
2021/12/05 16:18:46;;;;;;;20.70;8.77;;;1.50;99.90;;;;;;5055357;28;20519;-83
2021/12/05 16:21:27;;;;;;;13.23;6.68;;;1.50;99.90;;;;;;5064008;28;20095;-83
2021/12/05 16:24:14;;;;;;;31.98;17.40;;;1.50;99.90;;;;;;5064173;28;20387;-84
2021/12/05 16:26:42;;;;;;;48.03;20.95;;;1.40;99.90;;;;;;5064213;28;20098;-83
2021/12/05 16:29:11;;;;;;;15.18;8.40;;;1.50;99.90;;;;;;5067581;28;20013;-83
2021/12/05 16:31:41;;;;;;;15.55;6.85;;;1.40;99.90;;;;;;5056635;28;20029;-84
2021/12/05 16:34:11;;;;;;;11.45;6.30;;;1.30;99.90;;;;;;5046766;28;20021;-84
2021/12/05 16:36:45;;;;;;;13.73;7.05;;;1.30;99.90;;;;;;5062068;28;20033;-83
2021/12/05 16:39:18;;;;;;;14.77;7.00;;;1.40;99.90;;;;;;5049037;28;20142;-83
2021/12/05 16:41:46;;;;;;;17.83;8.52;;;1.50;99.90;;;;;;5047271;28;20120;-84
2021/12/05 16:44:22;;;;;;;18.98;7.30;;;1.60;99.90;;;;;;5059249;28;20078;-83
2021/12/05 16:46:57;;;;;;;14.55;6.30;;;1.60;99.90;;;;;;5055104;28;20169;-83
2021/12/05 16:49:27;;;;;;;14.52;6.38;;;1.70;99.90;;;;;;5060775;28;20020;-83
2021/12/05 16:51:55;;;;;;;15.40;6.80;;;1.70;99.90;;;;;;5061659;28;20021;-83
2021/12/05 16:54:34;;;;;;;12.65;5.90;;;1.70;99.90;;;;;;5045910;28;20024;-84
2021/12/05 16:57:09;;;;;;;11.98;6.13;;;1.70;99.90;;;;;;5068791;28;20025;-85
2021/12/05 16:59:42;;;;;;;14.40;9.18;;;1.70;99.90;;;;;;5068764;28;20511;-83
2021/12/05 17:02:15;;;;;;;15.70;5.65;;;1.70;99.90;;;;;;5048513;28;20085;-84
2021/12/05 17:05:01;;;;;;;13.85;6.72;;;1.70;99.90;;;;;;5064091;28;20055;-84
2021/12/05 17:10:48;;;;;;;21.15;9.77;;;1.60;99.90;;;;;;5058806;28;20056;-81
2021/12/05 17:13:22;;;;;;;25.75;11.57;;;1.40;99.90;;;;;;5065655;28;20028;-81
2021/12/05 17:15:58;;;;;;;18.10;10.77;;;1.30;99.90;;;;;;5061292;28;20021;-82
2021/12/05 17:18:27;;;;;;;19.75;10.43;;;1.10;99.90;;;;;;5043496;28;20044;-83
2021/12/05 17:20:58;;;;;;;20.10;11.27;;;1.00;99.90;;;;;;5039783;28;20025;-82
2021/12/05 17:23:26;;;;;;;;;;;0.80;99.90;;;;;;5045497;28;20118;-81
2021/12/05 17:25:55;;;;;;;23.88;11.27;;;0.70;99.90;;;;;;5064368;28;19948;-83
2021/12/05 17:28:31;;;;;;;24.63;11.23;;;0.70;99.90;;;;;;5060676;28;20553;-83
2021/12/05 17:31:00;;;;;;;14.65;8.00;;;0.60;99.90;;;;;;5075522;28;20033;-82
2021/12/05 17:33:33;;;;;;;11.13;5.18;;;0.40;99.90;;;;;;5068666;28;20488;-82
2021/12/05 17:36:27;;;;;;;10.00;5.63;;;0.40;99.90;;;;;;5066951;28;20025;-81
2021/12/05 17:39:00;;;;;;;8.75;4.43;;;0.40;99.90;;;;;;5068106;28;20044;-82
2021/12/05 17:41:28;;;;;;;16.20;8.40;;;0.40;99.90;;;;;;5069086;28;20309;-81
2021/12/05 17:43:55;;;;;;;10.13;4.00;;;0.50;99.90;;;;;;5063872;28;20036;-80
2021/12/05 17:46:22;;;;;;;9.13;5.18;;;0.60;99.90;;;;;;5062691;28;20128;-81
2021/12/05 17:48:48;;;;;;;8.30;3.90;;;0.60;99.90;;;;;;5064856;28;20032;-81
2021/12/05 17:51:14;;;;;;;10.35;4.25;;;0.70;99.90;;;;;;5065269;28;20101;-81
2021/12/05 17:53:41;;;;;;;11.30;4.30;;;0.80;99.90;;;;;;5048858;28;20400;-81
2021/12/05 17:56:33;;;;;;;17.05;3.95;;;0.90;99.90;;;;;;5062724;28;20094;-81
2021/12/05 17:59:12;;;;;;;7.78;3.13;;;1.00;99.90;;;;;;5063881;28;20017;-82
2021/12/05 18:04:23;;;;;;;7.28;3.20;;;1.10;99.90;;;;;;5049602;28;20035;-84
2021/12/05 18:06:48;;;;;;;5.75;2.78;;;1.00;99.90;;;;;;5061174;28;20029;-83
2021/12/05 18:09:14;;;;;;;5.97;2.55;;;1.00;99.90;;;;;;5060539;28;20036;-83
2021/12/05 18:11:40;;;;;;;4.15;2.33;;;1.00;99.90;;;;;;5049778;28;20028;-82
2021/12/05 18:14:06;;;;;;;4.60;2.58;;;1.00;99.90;;;;;;5055210;28;20479;-84
2021/12/05 18:16:32;;;;;;;10.57;2.80;;;1.10;99.90;;;;;;5066385;28;20043;-83
2021/12/05 18:19:03;;;;;;;7.40;2.55;;;1.20;99.90;;;;;;5066189;28;20075;-82
2021/12/05 18:21:36;;;;;;;4.88;1.92;;;1.10;99.90;;;;;;5062053;28;20475;-88
2021/12/05 18:24:10;;;;;;;7.00;4.25;;;1.00;99.90;;;;;;5064703;28;20028;-81
2021/12/05 18:26:37;;;;;;;15.73;5.25;;;1.10;99.90;;;;;;5069361;28;20020;-80
2021/12/05 18:29:04;;;;;;;14.48;8.60;;;1.20;99.90;;;;;;5060048;28;20114;-80
2021/12/05 18:31:34;;;;;;;15.02;8.48;;;1.00;99.90;;;;;;5063407;28;20033;-79
2021/12/05 18:34:04;;;;;;;10.82;4.72;;;1.00;99.90;;;;;;5044813;28;20029;-78
2021/12/05 18:36:32;;;;;;;11.20;6.22;;;1.10;99.90;;;;;;5032147;28;20032;-81
2021/12/05 18:38:59;;;;;;;10.75;5.63;;;1.10;99.90;;;;;;5065921;28;20064;-81
2021/12/05 18:41:27;;;;;;;14.10;7.13;;;1.10;99.90;;;;;;5063959;28;20040;-87
2021/12/05 18:43:54;;;;;;;13.82;7.57;;;1.20;99.90;;;;;;5062458;28;20055;-80
2021/12/05 18:46:20;;;;;;;15.93;7.25;;;1.30;99.90;;;;;;5062920;28;20044;-80
2021/12/05 18:48:46;;;;;;;16.55;7.25;;;1.30;99.90;;;;;;5062448;28;20032;-78
2021/12/05 18:51:13;;;;;;;30.80;14.80;;;1.20;99.90;;;;;;5064943;28;20111;-78
2021/12/05 18:53:41;;;;;;;12.82;5.80;;;1.10;99.90;;;;;;5069064;28;20542;-77
2021/12/05 18:56:08;;;;;;;10.07;5.30;;;1.10;99.90;;;;;;5063811;28;20053;-78
2021/12/05 18:58:38;;;;;;;15.32;6.68;;;1.00;99.90;;;;;;5044709;28;20025;-78
2021/12/05 19:06:43;;;;;;;9.52;3.38;;;0.90;99.90;;;;;;5065896;28;20108;-80